Date,TemperatureHighF,TemperatureAvgF,TemperatureLowF,DewpointHighF,DewpointAvgF,DewpointLowF,HumidityHigh,HumidityAvg,HumidityLow,PressureMaxIn,PressureMinIn,WindSpeedMaxMPH,WindSpeedAvgMPH,GustSpeedMaxMPH,PrecipitationSumIn
2013-1-1,62,54,47,60,52,44,98,91,84,30.09,29.88,7,2,13,1.12
2013-1-2,47,44,40,44,38,35,90,81,73,30.27,30.09,8,3,12,0.08
2013-1-3,55,43,36,35,29,24,81,59,39,30.42,30.21,8,3,11,0.00
2013-1-4,59,49,34,34,27,23,63,43,34,30.44,30.30,6,2,10,0.00
2013-1-5,53,46,43,39,30,25,78,55,44,30.39,30.21,5,2,10,0.00
2013-1-6,50,45,41,46,41,36,93,85,75,30.30,30.18,7,2,10,0.83
2013-1-7,61,48,36,39,34,31,86,62,38,30.33,30.15,6,2,9,0.00
2013-1-8,58,52,47,57,46,34,98,82,54,30.21,30.06,5,2,10,3.36
2013-1-9,62,59,57,61,59,56,98,98,98,30.18,30.06,6,2,12,2.49
2013-1-10,64,62,60,63,61,59,98,98,98,30.15,29.94,7,2,14,1.57
2013-1-11,67,64,60,66,63,60,98,97,93,30.12,29.97,3,1,6,0.46
2013-1-12,76,69,64,67,64,59,98,85,60,30.06,29.88,8,2,13,0.00
2013-1-13,73,61,46,67,58,43,94,88,69,30.12,29.80,11,3,20,1.95
2013-1-14,47,42,38,45,39,34,94,90,83,30.18,30.06,9,3,15,1.62
2013-1-15,45,41,38,44,39,35,96,91,86,30.09,29.97,6,2,8,0.70
2013-1-16,38,37,35,35,33,31,89,86,80,30.18,30.00,7,3,12,0.13
2013-1-17,57,43,36,37,31,28,88,66,38,30.44,30.15,7,2,10,0.00
2013-1-18,62,45,35,34,30,28,78,58,33,30.53,30.36,6,2,10,0.00
2013-1-19,64,49,36,44,36,28,79,63,43,30.39,30.21,5,1,7,0.00
2013-1-20,70,52,38,44,36,31,87,58,30,30.27,30.12,5,1,7,0.00
2013-1-21,67,52,40,43,37,33,78,58,37,30.24,30.12,6,1,10,0.00
2013-1-22,65,51,43,40,35,30,72,55,36,30.36,30.18,4,1,7,0.00
2013-1-23,70,54,41,46,39,34,83,59,33,30.42,30.27,6,1,8,0.00
2013-1-24,72,58,47,54,48,41,91,69,48,30.36,30.18,5,1,8,0.00
2013-1-25,74,58,52,53,50,46,89,77,44,30.27,30.12,7,2,12,0.00
2013-1-26,72,61,54,62,52,49,95,76,47,30.27,30.12,4,1,7,0.00
2013-1-27,60,53,50,57,48,46,96,84,79,30.27,30.18,3,0,4,0.00
2013-1-28,72,59,56,62,56,53,95,89,66,30.27,30.09,5,1,8,0.00
2013-1-29,77,68,61,66,63,60,98,86,61,30.09,29.74,8,3,19,0.00
2013-1-30,69,57,43,65,38,24,92,51,34,30.21,29.65,9,4,15,0.87
2013-1-31,65,48,36,33,27,12,73,48,15,30.30,30.18,6,1,8,0.00